sensor_id;sensor_type;location;lat;lon;timestamp;temperature;humidity
33863;DHT22;20158;51.436;-2.742;2023-04-24T00:00:31;10.20;57.40
33863;DHT22;20158;51.436;-2.742;2023-04-24T00:02:57;10.10;57.20
33863;DHT22;20158;51.436;-2.742;2023-04-24T00:05:23;10.10;57.30
33863;DHT22;20158;51.436;-2.742;2023-04-24T00:07:49;10.00;57.10
33863;DHT22;20158;51.436;-2.742;2023-04-24T00:10:18;10.00;57.10
33863;DHT22;20158;51.436;-2.742;2023-04-24T00:12:44;10.00;57.20
33863;DHT22;20158;51.436;-2.742;2023-04-24T00:15:10;10.00;57.30
33863;DHT22;20158;51.436;-2.742;2023-04-24T00:17:36;9.90;57.10
33863;DHT22;20158;51.436;-2.742;2023-04-24T00:20:03;9.90;57.20
33863;DHT22;20158;51.436;-2.742;2023-04-24T00:22:31;9.90;57.20
33863;DHT22;20158;51.436;-2.742;2023-04-24T00:24:57;9.80;57.10
33863;DHT22;20158;51.436;-2.742;2023-04-24T00:27:23;9.80;57.20
33863;DHT22;20158;51.436;-2.742;2023-04-24T00:29:49;9.80;57.20
33863;DHT22;20158;51.436;-2.742;2023-04-24T00:32:16;9.70;57.10
33863;DHT22;20158;51.436;-2.742;2023-04-24T00:34:43;9.70;57.20
33863;DHT22;20158;51.436;-2.742;2023-04-24T00:37:09;9.60;57.00
33863;DHT22;20158;51.436;-2.742;2023-04-24T00:39:36;9.60;57.10
33863;DHT22;20158;51.436;-2.742;2023-04-24T00:42:02;9.60;57.10
33863;DHT22;20158;51.436;-2.742;2023-04-24T00:44:28;9.60;57.20
33863;DHT22;20158;51.436;-2.742;2023-04-24T00:46:55;9.50;57.00
33863;DHT22;20158;51.436;-2.742;2023-04-24T00:49:22;9.50;57.10
33863;DHT22;20158;51.436;-2.742;2023-04-24T00:51:48;9.50;57.10
33863;DHT22;20158;51.436;-2.742;2023-04-24T00:54:15;9.50;57.20
33863;DHT22;20158;51.436;-2.742;2023-04-24T00:56:42;9.50;57.20
33863;DHT22;20158;51.436;-2.742;2023-04-24T00:59:09;9.50;57.20
33863;DHT22;20158;51.436;-2.742;2023-04-24T01:01:36;9.40;57.10
33863;DHT22;20158;51.436;-2.742;2023-04-24T01:04:03;9.40;57.10
33863;DHT22;20158;51.436;-2.742;2023-04-24T01:06:29;9.40;57.10
33863;DHT22;20158;51.436;-2.742;2023-04-24T01:08:58;9.40;57.20
33863;DHT22;20158;51.436;-2.742;2023-04-24T01:11:25;9.30;57.00
33863;DHT22;20158;51.436;-2.742;2023-04-24T01:13:51;9.30;57.00
33863;DHT22;20158;51.436;-2.742;2023-04-24T01:16:18;9.30;57.10
33863;DHT22;20158;51.436;-2.742;2023-04-24T01:18:47;9.30;57.10
33863;DHT22;20158;51.436;-2.742;2023-04-24T01:21:16;9.30;57.20
33863;DHT22;20158;51.436;-2.742;2023-04-24T01:23:45;9.30;57.20
33863;DHT22;20158;51.436;-2.742;2023-04-24T01:26:13;9.20;57.10
33863;DHT22;20158;51.436;-2.742;2023-04-24T01:28:40;9.20;57.10
33863;DHT22;20158;51.436;-2.742;2023-04-24T01:31:06;9.20;57.10
33863;DHT22;20158;51.436;-2.742;2023-04-24T01:33:32;9.10;57.00
33863;DHT22;20158;51.436;-2.742;2023-04-24T01:35:59;9.10;57.00
33863;DHT22;20158;51.436;-2.742;2023-04-24T01:38:25;9.10;57.00
33863;DHT22;20158;51.436;-2.742;2023-04-24T01:40:52;9.10;57.10
33863;DHT22;20158;51.436;-2.742;2023-04-24T01:43:19;9.00;57.00
33863;DHT22;20158;51.436;-2.742;2023-04-24T01:45:45;9.00;57.00
33863;DHT22;20158;51.436;-2.742;2023-04-24T01:48:12;9.00;57.00
33863;DHT22;20158;51.436;-2.742;2023-04-24T01:50:38;9.00;57.10
33863;DHT22;20158;51.436;-2.742;2023-04-24T01:53:05;9.00;57.10
33863;DHT22;20158;51.436;-2.742;2023-04-24T01:55:31;8.90;57.00
33863;DHT22;20158;51.436;-2.742;2023-04-24T01:57:57;8.90;57.10
33863;DHT22;20158;51.436;-2.742;2023-04-24T02:00:25;8.90;57.10
33863;DHT22;20158;51.436;-2.742;2023-04-24T02:02:52;8.90;57.10
33863;DHT22;20158;51.436;-2.742;2023-04-24T02:05:18;8.90;57.20
33863;DHT22;20158;51.436;-2.742;2023-04-24T02:07:44;8.80;57.00
33863;DHT22;20158;51.436;-2.742;2023-04-24T02:10:10;8.80;57.10
33863;DHT22;20158;51.436;-2.742;2023-04-24T02:12:41;8.80;57.10
33863;DHT22;20158;51.436;-2.742;2023-04-24T02:15:07;8.80;57.10
33863;DHT22;20158;51.436;-2.742;2023-04-24T02:17:36;8.80;57.10
33863;DHT22;20158;51.436;-2.742;2023-04-24T02:20:04;8.80;57.10
33863;DHT22;20158;51.436;-2.742;2023-04-24T02:22:31;8.80;57.20
33863;DHT22;20158;51.436;-2.742;2023-04-24T02:25:01;8.80;57.20
33863;DHT22;20158;51.436;-2.742;2023-04-24T02:27:27;8.80;57.20
33863;DHT22;20158;51.436;-2.742;2023-04-24T02:29:53;8.80;57.20
33863;DHT22;20158;51.436;-2.742;2023-04-24T02:32:19;8.70;57.10
33863;DHT22;20158;51.436;-2.742;2023-04-24T02:34:44;8.70;57.20
33863;DHT22;20158;51.436;-2.742;2023-04-24T02:37:12;8.70;57.20
33863;DHT22;20158;51.436;-2.742;2023-04-24T02:39:38;8.70;57.20
33863;DHT22;20158;51.436;-2.742;2023-04-24T02:42:06;8.70;57.80
33863;DHT22;20158;51.436;-2.742;2023-04-24T02:44:34;8.60;57.10
33863;DHT22;20158;51.436;-2.742;2023-04-24T02:47:00;8.60;57.20
33863;DHT22;20158;51.436;-2.742;2023-04-24T02:49:26;8.60;57.30
33863;DHT22;20158;51.436;-2.742;2023-04-24T02:51:53;8.60;57.30
33863;DHT22;20158;51.436;-2.742;2023-04-24T02:54:19;8.60;57.40
33863;DHT22;20158;51.436;-2.742;2023-04-24T02:56:45;8.50;57.20
33863;DHT22;20158;51.436;-2.742;2023-04-24T02:59:11;8.50;57.30
33863;DHT22;20158;51.436;-2.742;2023-04-24T03:01:37;8.60;57.50
33863;DHT22;20158;51.436;-2.742;2023-04-24T03:04:03;8.50;57.30
33863;DHT22;20158;51.436;-2.742;2023-04-24T03:06:29;8.50;57.30
33863;DHT22;20158;51.436;-2.742;2023-04-24T03:08:57;8.50;57.40
33863;DHT22;20158;51.436;-2.742;2023-04-24T03:11:22;8.50;57.40
33863;DHT22;20158;51.436;-2.742;2023-04-24T03:13:48;8.60;57.60
33863;DHT22;20158;51.436;-2.742;2023-04-24T03:16:14;8.60;57.60
33863;DHT22;20158;51.436;-2.742;2023-04-24T03:18:40;8.50;58.00
33863;DHT22;20158;51.436;-2.742;2023-04-24T03:21:07;8.60;57.60
33863;DHT22;20158;51.436;-2.742;2023-04-24T03:23:34;8.50;57.40
33863;DHT22;20158;51.436;-2.742;2023-04-24T03:26:00;8.60;57.70
33863;DHT22;20158;51.436;-2.742;2023-04-24T03:28:26;8.60;57.70
33863;DHT22;20158;51.436;-2.742;2023-04-24T03:30:59;8.60;57.70
33863;DHT22;20158;51.436;-2.742;2023-04-24T03:33:28;8.60;57.70
33863;DHT22;20158;51.436;-2.742;2023-04-24T03:35:59;8.60;57.70
33863;DHT22;20158;51.436;-2.742;2023-04-24T03:38:26;8.60;57.70
33863;DHT22;20158;51.436;-2.742;2023-04-24T03:41:02;8.60;57.80
33863;DHT22;20158;51.436;-2.742;2023-04-24T03:43:37;8.60;57.70
33863;DHT22;20158;51.436;-2.742;2023-04-24T03:46:05;8.70;57.90
33863;DHT22;20158;51.436;-2.742;2023-04-24T03:48:35;8.70;58.00
33863;DHT22;20158;51.436;-2.742;2023-04-24T03:51:01;8.60;57.80
33863;DHT22;20158;51.436;-2.742;2023-04-24T03:53:35;8.60;58.10
33863;DHT22;20158;51.436;-2.742;2023-04-24T03:56:01;8.70;58.10
33863;DHT22;20158;51.436;-2.742;2023-04-24T03:58:29;8.70;58.10
33863;DHT22;20158;51.436;-2.742;2023-04-24T04:00:55;8.70;58.10
33863;DHT22;20158;51.436;-2.742;2023-04-24T04:03:38;8.70;58.10
33863;DHT22;20158;51.436;-2.742;2023-04-24T04:06:05;8.70;58.00
33863;DHT22;20158;51.436;-2.742;2023-04-24T04:08:31;8.70;57.80
33863;DHT22;20158;51.436;-2.742;2023-04-24T04:10:58;8.70;57.90
33863;DHT22;20158;51.436;-2.742;2023-04-24T04:13:23;8.70;58.00
33863;DHT22;20158;51.436;-2.742;2023-04-24T04:15:50;8.70;58.10
33863;DHT22;20158;51.436;-2.742;2023-04-24T04:18:16;8.60;57.90
33863;DHT22;20158;51.436;-2.742;2023-04-24T04:20:42;8.60;58.00
33863;DHT22;20158;51.436;-2.742;2023-04-24T04:23:11;8.60;58.10
33863;DHT22;20158;51.436;-2.742;2023-04-24T04:25:50;8.60;58.10
33863;DHT22;20158;51.436;-2.742;2023-04-24T04:28:20;8.50;58.00
33863;DHT22;20158;51.436;-2.742;2023-04-24T04:30:47;8.50;58.00
33863;DHT22;20158;51.436;-2.742;2023-04-24T04:33:14;8.50;58.10
33863;DHT22;20158;51.436;-2.742;2023-04-24T04:35:41;8.50;58.20
33863;DHT22;20158;51.436;-2.742;2023-04-24T04:38:09;8.40;58.10
33863;DHT22;20158;51.436;-2.742;2023-04-24T04:41:01;8.40;58.10
33863;DHT22;20158;51.436;-2.742;2023-04-24T04:43:31;8.40;58.20
33863;DHT22;20158;51.436;-2.742;2023-04-24T04:45:59;8.40;58.20
33863;DHT22;20158;51.436;-2.742;2023-04-24T04:49:02;8.40;58.30
33863;DHT22;20158;51.436;-2.742;2023-04-24T04:51:29;8.30;58.20
33863;DHT22;20158;51.436;-2.742;2023-04-24T04:53:55;8.30;58.20
33863;DHT22;20158;51.436;-2.742;2023-04-24T04:56:23;8.30;58.20
33863;DHT22;20158;51.436;-2.742;2023-04-24T04:58:49;8.30;58.30
33863;DHT22;20158;51.436;-2.742;2023-04-24T05:01:16;8.20;58.80
33863;DHT22;20158;51.436;-2.742;2023-04-24T05:03:46;8.30;58.40
33863;DHT22;20158;51.436;-2.742;2023-04-24T05:06:14;8.20;58.20
33863;DHT22;20158;51.436;-2.742;2023-04-24T05:08:41;8.20;58.30
33863;DHT22;20158;51.436;-2.742;2023-04-24T05:11:18;8.20;58.30
33863;DHT22;20158;51.436;-2.742;2023-04-24T05:13:46;8.20;58.40
33863;DHT22;20158;51.436;-2.742;2023-04-24T05:16:17;8.20;58.40
33863;DHT22;20158;51.436;-2.742;2023-04-24T05:18:45;8.20;58.40
33863;DHT22;20158;51.436;-2.742;2023-04-24T05:21:14;8.20;58.40
33863;DHT22;20158;51.436;-2.742;2023-04-24T05:23:43;8.20;58.40
33863;DHT22;20158;51.436;-2.742;2023-04-24T05:26:10;8.20;58.40
33863;DHT22;20158;51.436;-2.742;2023-04-24T05:28:36;8.30;58.60
33863;DHT22;20158;51.436;-2.742;2023-04-24T05:31:07;8.30;58.50
33863;DHT22;20158;51.436;-2.742;2023-04-24T05:33:34;8.40;58.60
33863;DHT22;20158;51.436;-2.742;2023-04-24T05:36:00;8.40;58.50
33863;DHT22;20158;51.436;-2.742;2023-04-24T05:38:26;8.50;58.70
33863;DHT22;20158;51.436;-2.742;2023-04-24T05:40:52;8.60;58.80
33863;DHT22;20158;51.436;-2.742;2023-04-24T05:43:18;8.60;58.70
33863;DHT22;20158;51.436;-2.742;2023-04-24T05:45:44;8.70;58.80
33863;DHT22;20158;51.436;-2.742;2023-04-24T05:48:10;8.70;58.80
33863;DHT22;20158;51.436;-2.742;2023-04-24T05:50:36;8.80;58.90
33863;DHT22;20158;51.436;-2.742;2023-04-24T05:53:02;8.80;58.80
33863;DHT22;20158;51.436;-2.742;2023-04-24T05:55:33;8.90;58.90
33863;DHT22;20158;51.436;-2.742;2023-04-24T05:57:59;8.90;58.80
33863;DHT22;20158;51.436;-2.742;2023-04-24T06:00:26;9.00;59.10
33863;DHT22;20158;51.436;-2.742;2023-04-24T06:03:00;9.00;59.00
33863;DHT22;20158;51.436;-2.742;2023-04-24T06:05:26;9.10;59.10
33863;DHT22;20158;51.436;-2.742;2023-04-24T06:07:53;9.10;59.10
33863;DHT22;20158;51.436;-2.742;2023-04-24T06:10:21;9.10;59.10
33863;DHT22;20158;51.436;-2.742;2023-04-24T06:12:47;9.20;59.30
33863;DHT22;20158;51.436;-2.742;2023-04-24T06:15:16;9.20;59.30
33863;DHT22;20158;51.436;-2.742;2023-04-24T06:18:02;9.30;59.50
33863;DHT22;20158;51.436;-2.742;2023-04-24T06:20:28;9.40;59.60
33863;DHT22;20158;51.436;-2.742;2023-04-24T06:22:54;9.40;59.50
33863;DHT22;20158;51.436;-2.742;2023-04-24T06:25:20;9.60;59.90
33863;DHT22;20158;51.436;-2.742;2023-04-24T06:27:46;9.60;59.80
33863;DHT22;20158;51.436;-2.742;2023-04-24T06:30:12;9.60;59.70
33863;DHT22;20158;51.436;-2.742;2023-04-24T06:32:39;9.60;59.80
33863;DHT22;20158;51.436;-2.742;2023-04-24T06:35:05;9.60;59.90
33863;DHT22;20158;51.436;-2.742;2023-04-24T06:37:33;9.70;60.20
33863;DHT22;20158;51.436;-2.742;2023-04-24T06:39:59;9.70;60.30
33863;DHT22;20158;51.436;-2.742;2023-04-24T06:42:25;9.70;60.50
33863;DHT22;20158;51.436;-2.742;2023-04-24T06:44:51;9.70;60.60
33863;DHT22;20158;51.436;-2.742;2023-04-24T06:47:17;9.70;60.70
33863;DHT22;20158;51.436;-2.742;2023-04-24T06:49:44;9.80;61.00
33863;DHT22;20158;51.436;-2.742;2023-04-24T06:52:10;9.90;61.20
33863;DHT22;20158;51.436;-2.742;2023-04-24T06:54:36;9.90;61.20
33863;DHT22;20158;51.436;-2.742;2023-04-24T06:57:02;10.00;61.30
33863;DHT22;20158;51.436;-2.742;2023-04-24T06:59:28;10.10;61.40
33863;DHT22;20158;51.436;-2.742;2023-04-24T07:01:56;10.20;61.40
33863;DHT22;20158;51.436;-2.742;2023-04-24T07:04:23;10.30;61.50
33863;DHT22;20158;51.436;-2.742;2023-04-24T07:06:50;10.30;61.40
33863;DHT22;20158;51.436;-2.742;2023-04-24T07:09:17;10.30;61.50
33863;DHT22;20158;51.436;-2.742;2023-04-24T07:11:45;10.30;61.60
33863;DHT22;20158;51.436;-2.742;2023-04-24T07:14:11;10.30;61.70
33863;DHT22;20158;51.436;-2.742;2023-04-24T07:16:37;10.40;61.90
33863;DHT22;20158;51.436;-2.742;2023-04-24T07:19:03;10.40;62.00
33863;DHT22;20158;51.436;-2.742;2023-04-24T07:21:29;10.50;62.10
33863;DHT22;20158;51.436;-2.742;2023-04-24T07:23:59;10.60;62.10
33863;DHT22;20158;51.436;-2.742;2023-04-24T07:26:27;10.70;62.10
33863;DHT22;20158;51.436;-2.742;2023-04-24T07:28:53;10.90;62.30
33863;DHT22;20158;51.436;-2.742;2023-04-24T07:31:20;11.10;62.40
33863;DHT22;20158;51.436;-2.742;2023-04-24T07:33:46;11.40;62.60
33863;DHT22;20158;51.436;-2.742;2023-04-24T07:36:12;11.60;62.20
33863;DHT22;20158;51.436;-2.742;2023-04-24T07:38:42;11.90;62.30
33863;DHT22;20158;51.436;-2.742;2023-04-24T07:41:08;12.10;62.20
33863;DHT22;20158;51.436;-2.742;2023-04-24T07:43:34;12.30;62.10
33863;DHT22;20158;51.436;-2.742;2023-04-24T07:46:00;12.40;62.10
33863;DHT22;20158;51.436;-2.742;2023-04-24T07:48:26;12.40;61.90
33863;DHT22;20158;51.436;-2.742;2023-04-24T07:50:53;12.50;62.10
33863;DHT22;20158;51.436;-2.742;2023-04-24T07:53:19;12.40;62.00
33863;DHT22;20158;51.436;-2.742;2023-04-24T07:55:45;12.40;62.10
33863;DHT22;20158;51.436;-2.742;2023-04-24T07:58:11;12.40;62.20
33863;DHT22;20158;51.436;-2.742;2023-04-24T08:00:37;12.30;62.30
33863;DHT22;20158;51.436;-2.742;2023-04-24T08:03:03;12.30;62.40
33863;DHT22;20158;51.436;-2.742;2023-04-24T08:05:29;12.30;62.50
33863;DHT22;20158;51.436;-2.742;2023-04-24T08:07:56;12.30;62.60
33863;DHT22;20158;51.436;-2.742;2023-04-24T08:10:22;12.20;62.40
33863;DHT22;20158;51.436;-2.742;2023-04-24T08:12:49;12.10;62.40
33863;DHT22;20158;51.436;-2.742;2023-04-24T08:15:15;12.10;62.60
33863;DHT22;20158;51.436;-2.742;2023-04-24T08:17:41;12.10;62.60
33863;DHT22;20158;51.436;-2.742;2023-04-24T08:20:08;12.10;62.70
33863;DHT22;20158;51.436;-2.742;2023-04-24T08:22:43;12.10;62.60
33863;DHT22;20158;51.436;-2.742;2023-04-24T08:25:10;12.10;62.60
33863;DHT22;20158;51.436;-2.742;2023-04-24T08:27:36;12.00;62.30
33863;DHT22;20158;51.436;-2.742;2023-04-24T08:30:03;12.00;62.30
33863;DHT22;20158;51.436;-2.742;2023-04-24T08:32:30;11.90;62.20
33863;DHT22;20158;51.436;-2.742;2023-04-24T08:34:57;11.90;62.40
33863;DHT22;20158;51.436;-2.742;2023-04-24T08:37:26;11.80;62.30
33863;DHT22;20158;51.436;-2.742;2023-04-24T08:39:52;11.80;62.50
33863;DHT22;20158;51.436;-2.742;2023-04-24T08:42:20;11.70;62.50
33863;DHT22;20158;51.436;-2.742;2023-04-24T08:44:49;11.70;62.70
33863;DHT22;20158;51.436;-2.742;2023-04-24T08:47:15;11.60;62.60
33863;DHT22;20158;51.436;-2.742;2023-04-24T08:49:41;11.60;62.70
33863;DHT22;20158;51.436;-2.742;2023-04-24T08:52:08;11.60;62.70
33863;DHT22;20158;51.436;-2.742;2023-04-24T08:54:36;11.50;62.60
33863;DHT22;20158;51.436;-2.742;2023-04-24T08:57:02;11.60;62.90
33863;DHT22;20158;51.436;-2.742;2023-04-24T08:59:30;11.50;62.80
33863;DHT22;20158;51.436;-2.742;2023-04-24T09:01:57;11.40;62.70
33863;DHT22;20158;51.436;-2.742;2023-04-24T09:04:24;11.40;62.80
33863;DHT22;20158;51.436;-2.742;2023-04-24T09:06:57;11.40;62.90
33863;DHT22;20158;51.436;-2.742;2023-04-24T09:09:24;11.30;62.80
33863;DHT22;20158;51.436;-2.742;2023-04-24T09:11:51;11.30;62.90
33863;DHT22;20158;51.436;-2.742;2023-04-24T09:14:20;11.20;62.80
33863;DHT22;20158;51.436;-2.742;2023-04-24T09:16:47;11.20;62.80
33863;DHT22;20158;51.436;-2.742;2023-04-24T09:19:14;11.10;62.70
33863;DHT22;20158;51.436;-2.742;2023-04-24T09:21:39;11.10;62.80
33863;DHT22;20158;51.436;-2.742;2023-04-24T09:24:18;11.00;62.70
33863;DHT22;20158;51.436;-2.742;2023-04-24T09:26:46;11.00;62.70
33863;DHT22;20158;51.436;-2.742;2023-04-24T09:29:15;11.00;62.70
33863;DHT22;20158;51.436;-2.742;2023-04-24T09:31:43;10.90;62.50
33863;DHT22;20158;51.436;-2.742;2023-04-24T09:34:09;11.00;62.60
33863;DHT22;20158;51.436;-2.742;2023-04-24T09:36:37;11.00;62.60
33863;DHT22;20158;51.436;-2.742;2023-04-24T09:39:06;11.10;62.60
33863;DHT22;20158;51.436;-2.742;2023-04-24T09:41:33;11.10;62.60
33863;DHT22;20158;51.436;-2.742;2023-04-24T09:44:23;11.10;62.50
33863;DHT22;20158;51.436;-2.742;2023-04-24T09:46:52;11.20;62.70
33863;DHT22;20158;51.436;-2.742;2023-04-24T09:49:26;11.20;62.60
33863;DHT22;20158;51.436;-2.742;2023-04-24T09:52:10;11.20;62.60
33863;DHT22;20158;51.436;-2.742;2023-04-24T09:54:36;11.10;62.50
33863;DHT22;20158;51.436;-2.742;2023-04-24T09:57:03;11.10;62.50
33863;DHT22;20158;51.436;-2.742;2023-04-24T09:59:29;11.20;62.80
33863;DHT22;20158;51.436;-2.742;2023-04-24T10:01:56;11.20;62.80
33863;DHT22;20158;51.436;-2.742;2023-04-24T10:04:28;11.20;62.80
33863;DHT22;20158;51.436;-2.742;2023-04-24T10:06:57;11.30;62.90
33863;DHT22;20158;51.436;-2.742;2023-04-24T10:09:25;11.40;62.90
33863;DHT22;20158;51.436;-2.742;2023-04-24T10:11:52;11.50;62.90
33863;DHT22;20158;51.436;-2.742;2023-04-24T10:14:23;11.60;62.80
33863;DHT22;20158;51.436;-2.742;2023-04-24T10:16:52;11.60;62.60
33863;DHT22;20158;51.436;-2.742;2023-04-24T10:19:18;11.60;62.50
33863;DHT22;20158;51.436;-2.742;2023-04-24T10:21:45;11.60;62.60
33863;DHT22;20158;51.436;-2.742;2023-04-24T10:24:15;11.50;62.50
33863;DHT22;20158;51.436;-2.742;2023-04-24T10:26:41;11.50;62.70
33863;DHT22;20158;51.436;-2.742;2023-04-24T10:29:08;11.50;62.70
33863;DHT22;20158;51.436;-2.742;2023-04-24T10:31:37;11.40;62.60
33863;DHT22;20158;51.436;-2.742;2023-04-24T10:34:08;11.40;62.60
33863;DHT22;20158;51.436;-2.742;2023-04-24T10:36:36;11.40;62.70
33863;DHT22;20158;51.436;-2.742;2023-04-24T10:39:05;11.40;62.70
33863;DHT22;20158;51.436;-2.742;2023-04-24T10:41:32;11.50;62.80
33863;DHT22;20158;51.436;-2.742;2023-04-24T10:44:14;11.60;62.80
33863;DHT22;20158;51.436;-2.742;2023-04-24T10:46:45;11.70;63.00
33863;DHT22;20158;51.436;-2.742;2023-04-24T10:49:11;11.70;62.70
33863;DHT22;20158;51.436;-2.742;2023-04-24T10:54:33;11.80;62.40
33863;DHT22;20158;51.436;-2.742;2023-04-24T11:00:10;11.80;62.50
33863;DHT22;20158;51.436;-2.742;2023-04-24T11:02:39;11.70;62.60
33863;DHT22;20158;51.436;-2.742;2023-04-24T11:05:09;11.80;63.00
33863;DHT22;20158;51.436;-2.742;2023-04-24T11:08:15;11.80;63.10
33863;DHT22;20158;51.436;-2.742;2023-04-24T11:10:47;11.90;63.40
33863;DHT22;20158;51.436;-2.742;2023-04-24T11:13:16;12.00;63.20
33863;DHT22;20158;51.436;-2.742;2023-04-24T11:15:42;12.10;63.30
33863;DHT22;20158;51.436;-2.742;2023-04-24T11:18:15;12.10;63.30
33863;DHT22;20158;51.436;-2.742;2023-04-24T11:20:44;12.10;63.30
33863;DHT22;20158;51.436;-2.742;2023-04-24T11:23:13;12.20;63.40
33863;DHT22;20158;51.436;-2.742;2023-04-24T11:25:40;12.20;63.90
33863;DHT22;20158;51.436;-2.742;2023-04-24T11:28:07;12.30;63.50
33863;DHT22;20158;51.436;-2.742;2023-04-24T11:30:33;12.40;63.50
33863;DHT22;20158;51.436;-2.742;2023-04-24T11:33:04;12.60;63.70
33863;DHT22;20158;51.436;-2.742;2023-04-24T11:35:35;12.90;63.80
33863;DHT22;20158;51.436;-2.742;2023-04-24T11:38:03;13.10;63.60
33863;DHT22;20158;51.436;-2.742;2023-04-24T11:40:29;13.30;63.30
33863;DHT22;20158;51.436;-2.742;2023-04-24T11:42:55;13.50;63.20
33863;DHT22;20158;51.436;-2.742;2023-04-24T11:45:31;13.60;63.10
33863;DHT22;20158;51.436;-2.742;2023-04-24T11:47:57;13.80;63.20
33863;DHT22;20158;51.436;-2.742;2023-04-24T11:50:26;13.80;63.00
33863;DHT22;20158;51.436;-2.742;2023-04-24T11:52:53;13.90;63.00
33863;DHT22;20158;51.436;-2.742;2023-04-24T11:57:50;14.20;63.20
33863;DHT22;20158;51.436;-2.742;2023-04-24T12:02:51;14.40;63.10
33863;DHT22;20158;51.436;-2.742;2023-04-24T12:05:25;14.50;63.10
33863;DHT22;20158;51.436;-2.742;2023-04-24T12:07:52;14.50;63.00
33863;DHT22;20158;51.436;-2.742;2023-04-24T12:10:25;14.60;63.10
33863;DHT22;20158;51.436;-2.742;2023-04-24T12:12:55;14.70;63.10
33863;DHT22;20158;51.436;-2.742;2023-04-24T12:15:21;14.80;63.00
33863;DHT22;20158;51.436;-2.742;2023-04-24T12:17:49;14.90;63.00
33863;DHT22;20158;51.436;-2.742;2023-04-24T12:20:16;15.10;62.90
33863;DHT22;20158;51.436;-2.742;2023-04-24T12:25:19;15.50;62.80
33863;DHT22;20158;51.436;-2.742;2023-04-24T12:27:46;15.80;63.20
33863;DHT22;20158;51.436;-2.742;2023-04-24T12:30:16;16.10;62.50
33863;DHT22;20158;51.436;-2.742;2023-04-24T12:32:47;16.30;62.20
33863;DHT22;20158;51.436;-2.742;2023-04-24T12:35:20;16.60;62.20
33863;DHT22;20158;51.436;-2.742;2023-04-24T12:37:46;16.80;62.60
33863;DHT22;20158;51.436;-2.742;2023-04-24T12:40:13;17.10;61.90
33863;DHT22;20158;51.436;-2.742;2023-04-24T12:42:50;17.30;61.60
33863;DHT22;20158;51.436;-2.742;2023-04-24T12:45:17;17.50;61.30
33863;DHT22;20158;51.436;-2.742;2023-04-24T12:47:45;17.70;61.20
33863;DHT22;20158;51.436;-2.742;2023-04-24T12:50:13;17.80;61.00
33863;DHT22;20158;51.436;-2.742;2023-04-24T12:52:39;17.90;60.80
33863;DHT22;20158;51.436;-2.742;2023-04-24T12:55:06;18.00;60.60
33863;DHT22;20158;51.436;-2.742;2023-04-24T12:57:34;18.10;60.50
33863;DHT22;20158;51.436;-2.742;2023-04-24T13:00:01;18.00;60.10
33863;DHT22;20158;51.436;-2.742;2023-04-24T13:02:28;18.00;60.10
33863;DHT22;20158;51.436;-2.742;2023-04-24T13:04:55;17.90;59.90
33863;DHT22;20158;51.436;-2.742;2023-04-24T13:07:21;17.80;59.90
33863;DHT22;20158;51.436;-2.742;2023-04-24T13:09:49;17.70;59.80
33863;DHT22;20158;51.436;-2.742;2023-04-24T13:12:15;17.60;59.50
33863;DHT22;20158;51.436;-2.742;2023-04-24T13:14:41;17.60;59.60
33863;DHT22;20158;51.436;-2.742;2023-04-24T13:17:07;17.70;59.80
33863;DHT22;20158;51.436;-2.742;2023-04-24T13:19:38;17.80;59.80
33863;DHT22;20158;51.436;-2.742;2023-04-24T13:22:04;18.00;59.60
33863;DHT22;20158;51.436;-2.742;2023-04-24T13:24:31;18.40;59.40
33863;DHT22;20158;51.436;-2.742;2023-04-24T13:26:57;18.70;59.00
33863;DHT22;20158;51.436;-2.742;2023-04-24T13:29:23;18.80;58.60
33863;DHT22;20158;51.436;-2.742;2023-04-24T13:31:51;18.90;58.40
33863;DHT22;20158;51.436;-2.742;2023-04-24T13:34:17;18.90;58.10
33863;DHT22;20158;51.436;-2.742;2023-04-24T13:36:44;18.90;58.00
33863;DHT22;20158;51.436;-2.742;2023-04-24T13:39:10;18.90;57.90
33863;DHT22;20158;51.436;-2.742;2023-04-24T13:41:36;18.90;57.80
33863;DHT22;20158;51.436;-2.742;2023-04-24T13:44:03;18.80;57.50
33863;DHT22;20158;51.436;-2.742;2023-04-24T13:46:29;18.80;57.50
33863;DHT22;20158;51.436;-2.742;2023-04-24T13:48:55;18.60;57.10
33863;DHT22;20158;51.436;-2.742;2023-04-24T13:51:21;18.50;57.10
33863;DHT22;20158;51.436;-2.742;2023-04-24T13:53:47;18.40;57.00
33863;DHT22;20158;51.436;-2.742;2023-04-24T13:56:13;18.30;56.90
33863;DHT22;20158;51.436;-2.742;2023-04-24T13:58:39;18.30;57.10
33863;DHT22;20158;51.436;-2.742;2023-04-24T14:01:06;18.30;57.10
33863;DHT22;20158;51.436;-2.742;2023-04-24T14:03:33;18.40;57.10
33863;DHT22;20158;51.436;-2.742;2023-04-24T14:05:59;18.50;57.00
33863;DHT22;20158;51.436;-2.742;2023-04-24T14:08:25;18.60;56.80
33863;DHT22;20158;51.436;-2.742;2023-04-24T14:10:51;18.70;56.60
33863;DHT22;20158;51.436;-2.742;2023-04-24T14:13:17;18.80;56.30
33863;DHT22;20158;51.436;-2.742;2023-04-24T14:15:43;18.90;56.30
33863;DHT22;20158;51.436;-2.742;2023-04-24T14:18:09;18.90;56.20
33863;DHT22;20158;51.436;-2.742;2023-04-24T14:20:35;18.80;55.90
33863;DHT22;20158;51.436;-2.742;2023-04-24T14:23:01;18.70;55.80
33863;DHT22;20158;51.436;-2.742;2023-04-24T14:25:27;18.60;55.80
33863;DHT22;20158;51.436;-2.742;2023-04-24T14:27:53;18.40;55.70
33863;DHT22;20158;51.436;-2.742;2023-04-24T14:30:19;18.20;55.50
33863;DHT22;20158;51.436;-2.742;2023-04-24T14:32:46;18.10;55.70
33863;DHT22;20158;51.436;-2.742;2023-04-24T14:35:12;18.00;55.70
33863;DHT22;20158;51.436;-2.742;2023-04-24T14:37:37;17.90;55.70
33863;DHT22;20158;51.436;-2.742;2023-04-24T14:40:07;17.90;55.60
33863;DHT22;20158;51.436;-2.742;2023-04-24T14:42:34;17.90;55.60
33863;DHT22;20158;51.436;-2.742;2023-04-24T14:45:01;17.80;55.40
33863;DHT22;20158;51.436;-2.742;2023-04-24T14:47:27;17.80;55.50
33863;DHT22;20158;51.436;-2.742;2023-04-24T14:49:53;17.70;55.40
33863;DHT22;20158;51.436;-2.742;2023-04-24T14:52:19;17.60;55.40
33863;DHT22;20158;51.436;-2.742;2023-04-24T14:54:45;17.50;55.40
33863;DHT22;20158;51.436;-2.742;2023-04-24T14:57:11;17.40;55.30
33863;DHT22;20158;51.436;-2.742;2023-04-24T14:59:37;17.30;55.30
33863;DHT22;20158;51.436;-2.742;2023-04-24T15:02:03;17.10;55.00
33863;DHT22;20158;51.436;-2.742;2023-04-24T15:04:29;17.10;55.70
33863;DHT22;20158;51.436;-2.742;2023-04-24T15:06:56;17.00;55.10
33863;DHT22;20158;51.436;-2.742;2023-04-24T15:09:23;16.90;55.00
33863;DHT22;20158;51.436;-2.742;2023-04-24T15:11:51;16.80;54.90
33863;DHT22;20158;51.436;-2.742;2023-04-24T15:14:17;16.70;54.80
33863;DHT22;20158;51.436;-2.742;2023-04-24T15:16:44;16.60;54.80
33863;DHT22;20158;51.436;-2.742;2023-04-24T15:19:10;16.50;54.80
33863;DHT22;20158;51.436;-2.742;2023-04-24T15:21:37;16.50;54.80
33863;DHT22;20158;51.436;-2.742;2023-04-24T15:24:04;16.50;54.80
33863;DHT22;20158;51.436;-2.742;2023-04-24T15:26:30;16.40;54.70
33863;DHT22;20158;51.436;-2.742;2023-04-24T15:28:56;16.30;54.50
33863;DHT22;20158;51.436;-2.742;2023-04-24T15:31:22;16.30;54.50
33863;DHT22;20158;51.436;-2.742;2023-04-24T15:33:49;16.20;54.30
33863;DHT22;20158;51.436;-2.742;2023-04-24T15:36:16;16.20;54.40
33863;DHT22;20158;51.436;-2.742;2023-04-24T15:38:43;16.20;54.40